createdAt,value
2022-12-23T00:01:50.562Z,100119.63
2022-12-23T00:04:17.323Z,100120.72
2022-12-23T00:06:43.971Z,100128.59
2022-12-23T00:09:10.559Z,100117.97
2022-12-23T00:11:37.158Z,100122.66
2022-12-23T00:14:22.611Z,100123.78
2022-12-23T00:16:50.846Z,100121.84
2022-12-23T00:19:17.795Z,100117.66
2022-12-23T00:21:44.382Z,100110.91
2022-12-23T00:24:11.778Z,100108.47
2022-12-23T00:26:40.790Z,100119.41
2022-12-23T00:29:07.331Z,100118.31
2022-12-23T00:31:33.981Z,100116.03
2022-12-23T00:34:00.602Z,100111.53
2022-12-23T00:36:29.230Z,100112.97
2022-12-23T00:39:16.329Z,100107.81
2022-12-23T00:42:01.899Z,100103.31
2022-12-23T00:44:28.660Z,100111.19
2022-12-23T00:46:55.276Z,100102.69
2022-12-23T00:49:40.446Z,100096.41
2022-12-23T00:52:11.191Z,100087.22
2022-12-23T00:54:37.835Z,100092.38
2022-12-23T00:57:04.712Z,100091.25
2022-12-23T00:59:31.520Z,100086.94
2022-12-23T01:02:16.803Z,100093.03
2022-12-23T01:05:02.032Z,100098.06
2022-12-23T01:07:28.643Z,100092.09
2022-12-23T01:09:55.284Z,100096.41
2022-12-23T01:12:21.920Z,100090.75
2022-12-23T01:14:48.760Z,100093.00
2022-12-23T01:17:15.902Z,100087.84
2022-12-23T01:19:42.596Z,100080.47
2022-12-23T01:22:09.396Z,100079.31
2022-12-23T01:24:36.057Z,100079.81
2022-12-23T01:27:04.736Z,100079.31
2022-12-23T01:29:31.353Z,100088.19
2022-12-23T01:31:58.046Z,100079.81
2022-12-23T01:34:32.492Z,100076.12
2022-12-23T01:37:02.946Z,100065.84
2022-12-23T01:39:29.551Z,100062.81
2022-12-23T01:42:15.101Z,100073.25
2022-12-23T01:45:02.111Z,100070.03
2022-12-23T01:47:33.978Z,100066.50
2022-12-23T01:50:32.196Z,100065.34
2022-12-23T01:53:08.048Z,100058.28
2022-12-23T01:55:51.171Z,100049.91
2022-12-23T01:58:23.447Z,100050.06
2022-12-23T02:01:09.206Z,100048.00
2022-12-23T02:03:42.409Z,100049.12
2022-12-23T02:06:48.123Z,100048.16
2022-12-23T02:09:18.190Z,100046.75
2022-12-23T02:12:24.917Z,100039.19
2022-12-23T02:15:49.130Z,100044.94
2022-12-23T02:18:50.918Z,100042.19
2022-12-23T02:21:26.557Z,100039.28
2022-12-23T02:24:32.256Z,100037.34
2022-12-23T02:27:09.513Z,100033.00
2022-12-23T02:30:13.822Z,100028.19
2022-12-23T02:33:18.298Z,100025.34
2022-12-23T02:36:14.296Z,100025.66
2022-12-23T02:38:53.279Z,100029.53
2022-12-23T02:41:28.769Z,100028.41
2022-12-23T02:44:18.501Z,100020.19
2022-12-23T02:46:54.459Z,100017.53
2022-12-23T02:49:35.080Z,100020.75
2022-12-23T02:52:07.675Z,100015.44
2022-12-23T02:54:44.072Z,100010.81
2022-12-23T02:57:12.987Z,100012.38
2022-12-23T02:59:46.903Z,100014.97
2022-12-23T03:02:13.777Z,100008.22
2022-12-23T03:04:42.149Z,100005.31
2022-12-23T03:07:46.789Z,100007.41
2022-12-23T03:10:34.887Z,100031.50
2022-12-23T03:13:28.466Z,100025.88
2022-12-23T03:16:32.652Z,100031.31
2022-12-23T03:19:21.229Z,100029.56
2022-12-23T03:22:04.937Z,100028.62
2022-12-23T03:25:05.377Z,100003.81
2022-12-23T03:27:44.848Z,100025.38
2022-12-23T03:30:15.118Z,100017.78
2022-12-23T03:33:05.813Z,100019.44
2022-12-23T03:35:55.640Z,100016.37
2022-12-23T03:38:23.661Z,100023.41
2022-12-23T03:40:58.213Z,100014.63
2022-12-23T03:43:26.815Z,100016.22
2022-12-23T03:45:58.415Z,100012.84
2022-12-23T03:48:40.065Z,100000.78
2022-12-23T03:51:17.135Z,100003.66
2022-12-23T03:53:50.022Z,100012.06
2022-12-23T03:56:26.058Z,100014.28
2022-12-23T03:59:06.074Z,99998.38
2022-12-23T04:01:35.344Z,100003.66
2022-12-23T04:04:16.685Z,100016.87
2022-12-23T04:06:58.526Z,100021.84
2022-12-23T04:09:28.015Z,100014.75
2022-12-23T04:11:57.355Z,100000.41
2022-12-23T04:14:24.392Z,100013.63
2022-12-23T04:16:59.966Z,100003.19
2022-12-23T04:19:26.779Z,99999.81
2022-12-23T04:21:56.884Z,99995.66
2022-12-23T04:24:23.772Z,99993.87
2022-12-23T04:26:50.340Z,99985.97
2022-12-23T04:29:17.304Z,99986.50
2022-12-23T04:31:44.000Z,99980.84
2022-12-23T04:34:10.676Z,99991.31
2022-12-23T04:36:37.268Z,99986.16
2022-12-23T04:39:03.998Z,99989.84
2022-12-23T04:41:30.612Z,99993.41
2022-12-23T04:43:57.275Z,99990.50
2022-12-23T04:46:23.969Z,99985.53
2022-12-23T04:48:50.635Z,99993.47
2022-12-23T04:51:17.194Z,99991.72
2022-12-23T04:53:43.830Z,99993.16
2022-12-23T04:56:10.480Z,99998.31
2022-12-23T04:58:37.080Z,100001.50
2022-12-23T05:01:11.543Z,100005.69
2022-12-23T05:03:39.250Z,100004.25
2022-12-23T05:06:06.298Z,99994.31
2022-12-23T05:08:32.983Z,99990.94
2022-12-23T05:10:59.599Z,99996.22
2022-12-23T05:13:26.231Z,99999.41
2022-12-23T05:15:54.174Z,100009.53
2022-12-23T05:18:21.731Z,100006.47
2022-12-23T05:20:49.684Z,99993.16
2022-12-23T05:23:16.283Z,100000.91
2022-12-23T05:25:43.024Z,99997.50
2022-12-23T05:28:09.644Z,100001.03
2022-12-23T05:30:36.493Z,100002.66
2022-12-23T05:33:03.149Z,99998.66
2022-12-23T05:35:29.760Z,100007.03
2022-12-23T05:37:57.811Z,99994.16
2022-12-23T05:40:28.536Z,99994.97
2022-12-23T05:42:58.132Z,100009.09
2022-12-23T05:45:24.759Z,100001.72
2022-12-23T05:47:51.315Z,99993.19
2022-12-23T05:50:18.654Z,99992.38
2022-12-23T05:52:45.271Z,99985.81
2022-12-23T05:55:11.895Z,99990.28
2022-12-23T05:57:38.696Z,99999.16
2022-12-23T06:00:05.750Z,100006.22
2022-12-23T06:02:32.433Z,100024.03
2022-12-23T06:04:59.134Z,100020.84
2022-12-23T06:07:25.742Z,100022.91
2022-12-23T06:09:52.317Z,100025.81
2022-12-23T06:12:18.843Z,100035.75
2022-12-23T06:14:45.432Z,100041.72
2022-12-23T06:17:12.031Z,100034.66
2022-12-23T06:19:38.597Z,100020.19
2022-12-23T06:22:05.230Z,100014.44
2022-12-23T06:24:31.778Z,100017.13
2022-12-23T06:26:58.327Z,100018.91
2022-12-23T06:29:25.351Z,100021.00
2022-12-23T06:31:52.070Z,100018.59
2022-12-23T06:34:18.697Z,100018.75
2022-12-23T06:36:45.324Z,100013.75
2022-12-23T06:39:14.359Z,100020.19
2022-12-23T06:41:40.958Z,100011.03
2022-12-23T06:44:08.827Z,100014.25
2022-12-23T06:46:37.446Z,100005.91
2022-12-23T06:49:09.048Z,99998.84
2022-12-23T06:51:42.032Z,99991.91
2022-12-23T06:54:12.184Z,99997.84
2022-12-23T06:56:39.187Z,99991.56
2022-12-23T06:59:06.044Z,100008.44
2022-12-23T07:01:33.582Z,100008.28
2022-12-23T07:04:00.303Z,100032.88
2022-12-23T07:06:27.039Z,100046.69
2022-12-23T07:08:53.679Z,100038.84
2022-12-23T07:11:20.267Z,100036.25
2022-12-23T07:13:47.545Z,100044.91
2022-12-23T07:16:14.200Z,100049.09
2022-12-23T07:18:40.881Z,100058.72
2022-12-23T07:21:15.586Z,100063.56
2022-12-23T07:23:49.057Z,100079.94
2022-12-23T07:26:18.094Z,100087.63
2022-12-23T07:28:48.804Z,100066.44
2022-12-23T07:31:15.985Z,100072.25
2022-12-23T07:33:42.860Z,100069.03
2022-12-23T07:36:09.633Z,100054.25
2022-12-23T07:38:38.466Z,100059.56
2022-12-23T07:41:05.327Z,100058.09
2022-12-23T07:43:31.977Z,100058.25
2022-12-23T07:46:00.709Z,100044.28
2022-12-23T07:48:27.969Z,100039.12
2022-12-23T07:51:00.804Z,100030.00
2022-12-23T07:53:30.621Z,100029.19
2022-12-23T07:55:57.220Z,100032.88
2022-12-23T07:58:24.436Z,100037.22
2022-12-23T08:00:51.013Z,100044.59
2022-12-23T08:03:17.971Z,100045.69
2022-12-23T08:05:44.753Z,100039.09
2022-12-23T08:08:11.790Z,100034.63
2022-12-23T08:10:44.357Z,100043.47
2022-12-23T08:13:14.579Z,100030.16
2022-12-23T08:15:46.444Z,100028.53
2022-12-23T08:18:13.008Z,100022.75
2022-12-23T08:20:39.564Z,100031.59
2022-12-23T08:23:06.122Z,100028.06
2022-12-23T08:25:32.903Z,100027.88
2022-12-23T08:27:59.481Z,100021.78
2022-12-23T08:30:26.171Z,100025.31
2022-12-23T08:32:52.770Z,100035.91
2022-12-23T08:35:19.326Z,100025.91
2022-12-23T08:37:46.032Z,100028.50
2022-12-23T08:40:12.672Z,100016.78
2022-12-23T08:42:39.255Z,100015.44
2022-12-23T08:45:06.133Z,100008.47
2022-12-23T08:47:32.700Z,99999.00
2022-12-23T08:49:59.293Z,100006.25
2022-12-23T08:52:25.903Z,100013.37
2022-12-23T08:54:52.494Z,100026.28
2022-12-23T08:57:19.055Z,100014.69
2022-12-23T08:59:47.020Z,100011.81
2022-12-23T09:02:16.725Z,100008.78
2022-12-23T09:04:43.593Z,100004.41
2022-12-23T09:07:10.297Z,99997.19
2022-12-23T09:09:38.490Z,99979.00
2022-12-23T09:12:07.453Z,99959.22
2022-12-23T09:14:34.124Z,99962.00
2022-12-23T09:17:00.742Z,99967.09
2022-12-23T09:19:27.293Z,99981.34
2022-12-23T09:21:56.690Z,99979.97
2022-12-23T09:24:26.029Z,99977.03
2022-12-23T09:26:55.096Z,99982.16
2022-12-23T09:29:24.167Z,99981.28
2022-12-23T09:31:50.764Z,99983.81
2022-12-23T09:34:17.422Z,99992.72
2022-12-23T09:36:43.959Z,99992.66
2022-12-23T09:39:10.611Z,99994.91
2022-12-23T09:41:54.739Z,99997.06
2022-12-23T09:45:10.847Z,99998.19
2022-12-23T09:47:38.382Z,99999.31
2022-12-23T09:50:19.363Z,99992.75
2022-12-23T09:53:18.349Z,99989.62
2022-12-23T09:55:57.511Z,99979.75
2022-12-23T09:58:33.000Z,99963.16
2022-12-23T10:01:21.517Z,99960.19
2022-12-23T10:04:35.872Z,99955.28
2022-12-23T10:07:05.293Z,99969.63
2022-12-23T10:09:36.575Z,99980.94
2022-12-23T10:12:11.448Z,99977.69
2022-12-23T10:14:38.531Z,99966.62
2022-12-23T10:17:15.506Z,99965.00
2022-12-23T10:19:45.662Z,99952.12
2022-12-23T10:22:17.222Z,99930.56
2022-12-23T10:24:46.163Z,99918.91
2022-12-23T10:27:22.147Z,99912.19
2022-12-23T10:29:49.312Z,99916.75
2022-12-23T10:32:27.270Z,99931.75
2022-12-23T10:35:22.655Z,99929.06
2022-12-23T10:38:00.811Z,99920.84
2022-12-23T10:40:46.001Z,99913.81
2022-12-23T10:43:20.193Z,99907.22
2022-12-23T10:45:55.723Z,99900.38
2022-12-23T10:48:50.600Z,99906.03
2022-12-23T10:51:23.226Z,99899.47
2022-12-23T10:53:55.452Z,99890.22
2022-12-23T10:56:22.735Z,99888.47
2022-12-23T10:58:55.099Z,99884.38
2022-12-23T11:01:27.184Z,99876.44
2022-12-23T11:04:12.876Z,99871.09
2022-12-23T11:06:42.858Z,99872.72
2022-12-23T11:09:19.176Z,99880.72
2022-12-23T11:12:03.897Z,99889.47
2022-12-23T11:14:40.175Z,99887.56
2022-12-23T11:17:28.146Z,99888.28
2022-12-23T11:20:17.458Z,99886.44
2022-12-23T11:22:49.851Z,99883.50
2022-12-23T11:25:26.854Z,99882.66
2022-12-23T11:28:06.448Z,99875.22
2022-12-23T11:30:38.473Z,99874.72
2022-12-23T11:33:05.248Z,99884.69
2022-12-23T11:35:35.635Z,99877.47
2022-12-23T11:38:04.127Z,99875.81
2022-12-23T11:40:35.455Z,99872.97
2022-12-23T11:43:04.627Z,99878.75
2022-12-23T11:45:36.024Z,99876.38
2022-12-23T11:48:06.122Z,99876.97
2022-12-23T11:50:38.165Z,99894.63
2022-12-23T11:53:23.040Z,99891.22
2022-12-23T11:56:05.028Z,99885.41
2022-12-23T11:58:40.695Z,99890.47
2022-12-23T12:01:15.275Z,99891.78
2022-12-23T12:03:54.508Z,99895.56
2022-12-23T12:06:22.610Z,99902.84
2022-12-23T12:08:52.498Z,99906.81
2022-12-23T12:11:25.346Z,99901.00
2022-12-23T12:14:01.564Z,99905.12
2022-12-23T12:16:36.934Z,99909.78
2022-12-23T12:19:34.615Z,99908.16
2022-12-23T12:22:06.161Z,99909.81
2022-12-23T12:24:43.877Z,99908.75
2022-12-23T12:27:11.935Z,99916.31
2022-12-23T12:29:55.604Z,99896.75
2022-12-23T12:32:38.865Z,99904.69
2022-12-23T12:35:18.805Z,99909.25
2022-12-23T12:37:53.678Z,99906.25
2022-12-23T12:40:30.531Z,99905.72
2022-12-23T12:43:22.332Z,99892.47
2022-12-23T12:46:24.914Z,99889.50
2022-12-23T12:49:20.634Z,99894.84
2022-12-23T12:51:58.494Z,99894.63
2022-12-23T12:54:39.255Z,99891.00
2022-12-23T12:57:06.612Z,99897.25
2022-12-23T12:59:36.060Z,99901.50
2022-12-23T13:02:11.555Z,99904.31
2022-12-23T13:05:09.970Z,99899.44
2022-12-23T13:07:51.627Z,99890.62
2022-12-23T13:10:37.740Z,99904.88
2022-12-23T13:13:19.243Z,99911.47
2022-12-23T13:15:45.776Z,99908.94
2022-12-23T13:18:37.061Z,99915.44
2022-12-23T13:21:26.604Z,99913.66
2022-12-23T13:24:36.750Z,99903.91
2022-12-23T13:27:14.029Z,99890.16
2022-12-23T13:29:54.607Z,99908.47
2022-12-23T13:33:02.187Z,99910.25
2022-12-23T13:36:06.126Z,99905.03
2022-12-23T13:39:05.867Z,99894.97
2022-12-23T13:41:44.768Z,99901.09
2022-12-23T13:44:15.199Z,99901.44
2022-12-23T13:47:00.176Z,99900.28
2022-12-23T13:49:45.745Z,99902.22
2022-12-23T13:52:24.407Z,99907.31
2022-12-23T13:55:12.161Z,99909.78
2022-12-23T13:57:41.673Z,99908.50
2022-12-23T14:00:24.967Z,99912.91
2022-12-23T14:02:57.583Z,99912.53
2022-12-23T14:05:39.427Z,99907.59
2022-12-23T14:08:20.591Z,99908.75
2022-12-23T14:11:27.361Z,99911.28
2022-12-23T14:14:00.316Z,99903.66
2022-12-23T14:16:51.442Z,99902.69
2022-12-23T14:19:42.434Z,99912.44
2022-12-23T14:22:40.997Z,99922.22
2022-12-23T14:25:58.569Z,99907.38
2022-12-23T14:29:04.656Z,99911.69
2022-12-23T14:31:42.974Z,99919.06
2022-12-23T14:34:18.623Z,99917.81
2022-12-23T14:37:39.265Z,99925.56
2022-12-23T14:40:39.611Z,99911.06
2022-12-23T14:43:56.052Z,99922.53
2022-12-23T14:46:45.907Z,99926.25
2022-12-23T14:49:39.584Z,99924.75
2022-12-23T14:52:38.054Z,99925.47
2022-12-23T14:55:32.986Z,99921.56
2022-12-23T14:58:13.214Z,99926.59
2022-12-23T15:00:52.713Z,99917.00
2022-12-23T15:03:20.407Z,99930.16
2022-12-23T15:05:51.021Z,99922.84
2022-12-23T15:08:41.250Z,99922.34
2022-12-23T15:11:24.700Z,99929.00
2022-12-23T15:13:53.578Z,99935.03
2022-12-23T15:16:30.508Z,99945.13
2022-12-23T15:19:02.166Z,99939.97
2022-12-23T15:21:32.337Z,99939.59
2022-12-23T15:23:59.656Z,99942.63
2022-12-23T15:26:30.777Z,99946.34
2022-12-23T15:29:01.526Z,99956.31
2022-12-23T15:31:35.847Z,99955.50
2022-12-23T15:34:16.515Z,99950.69
2022-12-23T15:36:44.457Z,99947.69
2022-12-23T15:39:19.566Z,99947.75
2022-12-23T15:41:47.911Z,99934.25
2022-12-23T15:44:20.391Z,99944.84
2022-12-23T15:46:50.569Z,99934.53
2022-12-23T15:49:19.518Z,99937.28
2022-12-23T15:52:07.895Z,99940.91
2022-12-23T15:54:40.627Z,99938.28
2022-12-23T15:57:07.308Z,99936.22
2022-12-23T15:59:37.849Z,99941.63
2022-12-23T16:02:40.859Z,99935.66
2022-12-23T16:05:05.420Z,99929.88
2022-12-23T16:07:40.816Z,99924.91
2022-12-23T16:10:16.712Z,99917.78
2022-12-23T16:12:44.369Z,99927.84
2022-12-23T16:15:32.416Z,99940.56
2022-12-23T16:18:34.415Z,99950.22
2022-12-23T16:21:04.252Z,99954.25
2022-12-23T16:23:33.951Z,99950.38
2022-12-23T16:26:02.365Z,99948.84
2022-12-23T16:28:58.012Z,99945.94
2022-12-23T16:31:25.056Z,99946.75
2022-12-23T16:33:55.575Z,99949.91
2022-12-23T16:36:32.314Z,99949.34
2022-12-23T16:39:13.695Z,99941.03
2022-12-23T16:41:40.242Z,99937.19
2022-12-23T16:44:06.865Z,99934.91
2022-12-23T16:46:37.554Z,99934.44
2022-12-23T16:49:08.405Z,99940.75
2022-12-23T16:51:36.689Z,99932.09
2022-12-23T16:54:03.562Z,99942.63
2022-12-23T16:56:36.024Z,99926.53
2022-12-23T16:59:03.718Z,99935.38
2022-12-23T17:01:43.497Z,99928.31
2022-12-23T17:04:10.435Z,99918.25
2022-12-23T17:06:37.803Z,99912.25
2022-12-23T17:09:05.882Z,99908.81
2022-12-23T17:11:40.080Z,99911.06
2022-12-23T17:14:15.690Z,99912.38
2022-12-23T17:16:42.698Z,99920.19
2022-12-23T17:19:09.585Z,99917.56
2022-12-23T17:21:37.292Z,99910.53
2022-12-23T17:24:10.712Z,99913.47
2022-12-23T17:26:37.803Z,99921.09
2022-12-23T17:29:05.713Z,99916.47
2022-12-23T17:31:34.007Z,99915.13
2022-12-23T17:34:01.757Z,99918.25
2022-12-23T17:36:28.497Z,99920.53
2022-12-23T17:38:55.305Z,99914.31
2022-12-23T17:41:30.973Z,99918.53
2022-12-23T17:43:58.240Z,99908.19
2022-12-23T17:46:25.850Z,99913.41
2022-12-23T17:48:53.414Z,99906.38
2022-12-23T17:51:22.654Z,99913.16
2022-12-23T17:53:56.968Z,99920.69
2022-12-23T17:56:25.006Z,99907.31
2022-12-23T17:58:52.165Z,99913.97
2022-12-23T18:01:25.301Z,99919.66
2022-12-23T18:03:53.022Z,99928.25
2022-12-23T18:06:21.926Z,99920.97
2022-12-23T18:08:48.622Z,99926.69
2022-12-23T18:11:33.629Z,99930.50
2022-12-23T18:14:01.387Z,99914.53
2022-12-23T18:16:28.059Z,99913.97
2022-12-23T18:18:54.730Z,99905.06
2022-12-23T18:21:25.012Z,99902.94
2022-12-23T18:23:54.020Z,99892.41
2022-12-23T18:26:20.926Z,99893.56
2022-12-23T18:28:47.581Z,99889.47
2022-12-23T18:31:20.462Z,99893.09
2022-12-23T18:33:47.806Z,99901.16
2022-12-23T18:36:20.704Z,99909.28
2022-12-23T18:38:47.365Z,99905.28
2022-12-23T18:41:14.049Z,99902.81
2022-12-23T18:43:40.669Z,99907.22
2022-12-23T18:46:07.295Z,99906.09
2022-12-23T18:48:33.966Z,99908.59
2022-12-23T18:51:00.523Z,99906.19
2022-12-23T18:53:27.198Z,99909.44
2022-12-23T18:55:54.790Z,99920.69
2022-12-23T18:58:22.425Z,99921.72
2022-12-23T19:00:50.908Z,99925.87
2022-12-23T19:03:26.547Z,99930.47
2022-12-23T19:05:54.916Z,99924.31
2022-12-23T19:08:27.683Z,99922.47
2022-12-23T19:10:56.015Z,99926.16
2022-12-23T19:13:23.148Z,99924.78
2022-12-23T19:15:50.018Z,99927.69
2022-12-23T19:18:18.823Z,99948.28
2022-12-23T19:20:48.903Z,99951.53
2022-12-23T19:23:16.462Z,99946.03
2022-12-23T19:25:49.237Z,99946.84
2022-12-23T19:28:21.901Z,99944.88
2022-12-23T19:30:48.944Z,99954.28
2022-12-23T19:33:15.912Z,99944.38
2022-12-23T19:35:43.772Z,99958.94
2022-12-23T19:38:10.833Z,99965.66
2022-12-23T19:40:37.832Z,99958.47
2022-12-23T19:43:04.735Z,99961.66
2022-12-23T19:45:31.354Z,99956.34
2022-12-23T19:47:57.964Z,99953.22
2022-12-23T19:50:26.403Z,99951.72
2022-12-23T19:52:54.766Z,99954.44
2022-12-23T19:55:21.502Z,99955.06
2022-12-23T19:57:48.157Z,99964.84
2022-12-23T20:00:16.032Z,99966.16
2022-12-23T20:02:42.893Z,99963.31
2022-12-23T20:05:10.249Z,99969.72
2022-12-23T20:07:37.292Z,99962.16
2022-12-23T20:10:06.870Z,99961.81
2022-12-23T20:12:33.518Z,99955.06
2022-12-23T20:15:00.149Z,99958.56
2022-12-23T20:17:26.753Z,99970.37
2022-12-23T20:19:53.379Z,99970.22
2022-12-23T20:22:20.025Z,99964.19
2022-12-23T20:24:46.635Z,99968.38
2022-12-23T20:27:15.715Z,99966.19
2022-12-23T20:29:44.224Z,99963.75
2022-12-23T20:32:10.789Z,99959.25
2022-12-23T20:34:40.059Z,99956.28
2022-12-23T20:37:07.827Z,99955.31
2022-12-23T20:39:34.870Z,99949.88
2022-12-23T20:42:01.449Z,99945.28
2022-12-23T20:44:36.935Z,99938.84
2022-12-23T20:47:06.119Z,99934.75
2022-12-23T20:49:33.406Z,99935.06
2022-12-23T20:52:00.172Z,99931.06
2022-12-23T20:54:32.767Z,99910.00
2022-12-23T20:57:01.842Z,99917.09
2022-12-23T20:59:28.882Z,99913.25
2022-12-23T21:01:55.742Z,99908.56
2022-12-23T21:04:22.716Z,99894.56
2022-12-23T21:06:49.680Z,99887.66
2022-12-23T21:09:16.842Z,99896.31
2022-12-23T21:11:46.430Z,99911.19
2022-12-23T21:14:14.640Z,99917.63
2022-12-23T21:16:42.667Z,99912.16
2022-12-23T21:19:17.077Z,99917.09
2022-12-23T21:21:43.771Z,99921.25
2022-12-23T21:24:11.358Z,99904.53
2022-12-23T21:26:38.469Z,99898.09
2022-12-23T21:29:06.865Z,99910.47
2022-12-23T21:31:36.641Z,99900.34
2022-12-23T21:34:03.530Z,99904.22
2022-12-23T21:36:35.655Z,99902.16
2022-12-23T21:39:03.124Z,99892.53
2022-12-23T21:41:34.399Z,99882.25
2022-12-23T21:44:01.426Z,99881.34
2022-12-23T21:46:29.758Z,99875.34
2022-12-23T21:48:58.047Z,99878.37
2022-12-23T21:51:30.356Z,99876.38
2022-12-23T21:54:01.567Z,99863.28
2022-12-23T21:56:30.986Z,99868.69
2022-12-23T21:59:01.442Z,99868.50
2022-12-23T22:01:28.740Z,99862.34
2022-12-23T22:03:56.148Z,99865.44
2022-12-23T22:06:25.097Z,99892.63
2022-12-23T22:08:53.128Z,99896.56
2022-12-23T22:11:23.698Z,99881.03
2022-12-23T22:13:50.575Z,99862.88
2022-12-23T22:16:20.713Z,99859.41
2022-12-23T22:18:48.255Z,99855.03
2022-12-23T22:21:20.137Z,99842.75
2022-12-23T22:23:47.446Z,99825.13
2022-12-23T22:26:22.282Z,99816.94
2022-12-23T22:28:51.112Z,99812.41
2022-12-23T22:31:46.768Z,99806.94
2022-12-23T22:34:15.923Z,99796.97
2022-12-23T22:36:42.693Z,99795.22
2022-12-23T22:39:19.345Z,99797.84
2022-12-23T22:41:47.097Z,99799.78
2022-12-23T22:44:13.716Z,99788.47
2022-12-23T22:46:40.479Z,99790.53
2022-12-23T22:49:07.190Z,99789.38
2022-12-23T22:51:33.802Z,99790.06
2022-12-23T22:54:03.433Z,99786.75
2022-12-23T22:56:29.990Z,99781.59
2022-12-23T22:58:56.553Z,99776.69
2022-12-23T23:01:29.359Z,99775.06
2022-12-23T23:03:58.001Z,99771.44
2022-12-23T23:06:30.576Z,99772.72
2022-12-23T23:08:57.376Z,99771.81
2022-12-23T23:11:25.629Z,99768.53
2022-12-23T23:13:53.414Z,99765.78
2022-12-23T23:16:20.269Z,99768.97
2022-12-23T23:18:47.027Z,99770.09
2022-12-23T23:21:14.582Z,99763.50
2022-12-23T23:23:41.265Z,99770.72
2022-12-23T23:26:10.203Z,99784.31
2022-12-23T23:28:39.304Z,99781.84
2022-12-23T23:31:39.718Z,99784.59
2022-12-23T23:33:53.149Z,99781.78
2022-12-23T23:36:19.763Z,99773.75
2022-12-23T23:38:46.379Z,99784.09
2022-12-23T23:41:17.295Z,99789.56
2022-12-23T23:43:47.119Z,99803.44
2022-12-23T23:46:13.722Z,99807.75
2022-12-23T23:48:40.322Z,99807.91
2022-12-23T23:51:07.014Z,99806.06
2022-12-23T23:53:33.925Z,99766.22
2022-12-23T23:56:05.854Z,99770.03
2022-12-23T23:58:33.585Z,99775.91
